Time;durP1;ratioP1;P1;durP2;ratioP2;P2;SDS_P1;SDS_P2;PMS_P1;PMS_P2;Temp;Humidity;BMP_temperature;BMP_pressure;BME280_temperature;BME280_humidity;BME280_pressure;Samples;Min_cycle;Max_cycle;Signal;HPM_P1;HPM_P2
2023/03/01 00:00:13;;;;;;;;;;;;;;;6.19;49.56;101519.47;5368228;32;44828;-76
2023/03/01 00:03:15;;;;;;;;;;;;;;;6.67;48.60;101518.41;5381510;32;35257;-78
2023/03/01 00:06:17;;;;;;;;;;;;;;;6.39;48.77;101506.34;5384365;32;35566;-77
2023/03/01 00:09:19;;;;;;;;;;;;;;;6.70;48.32;101514.91;5371871;32;36208;-66
2023/03/01 00:12:21;;;;;;;;;;;;;;;6.57;48.69;101505.38;5390872;32;36504;-77
2023/03/01 00:15:23;;;;;;;;;;;;;;;7.32;47.04;101497.94;5368756;32;35382;-67
2023/03/01 00:18:25;;;;;;;;;;;;;;;7.26;46.78;101509.31;5396110;32;35398;-77
2023/03/01 00:21:26;;;;;;;;;;;;;;;7.20;46.67;101506.72;5384034;32;36156;-77
2023/03/01 00:24:28;;;;;;;;;;;;;;;6.96;47.74;101518.25;5380508;32;35321;-76
2023/03/01 00:27:30;;;;;;;;;;;;;;;6.73;48.01;101520.12;5383093;32;35738;-76
2023/03/01 00:30:32;;;;;;;;;;;;;;;7.28;46.80;101517.16;5387833;32;34918;-76
2023/03/01 00:33:34;;;;;;;;;;;;;;;6.47;48.55;101521.09;5390028;32;36301;-76
2023/03/01 00:36:36;;;;;;;;;;;;;;;6.71;48.03;101521.87;5383879;32;35884;-74
2023/03/01 00:39:38;;;;;;;;;;;;;;;6.75;47.66;101520.97;5396210;32;35948;-76
2023/03/01 00:42:41;;;;;;;;;;;;;;;7.01;47.13;101521.69;5361542;32;35551;-68
2023/03/01 00:45:42;;;;;;;;;;;;;;;7.25;46.40;101522.41;5388247;32;38188;-75
2023/03/01 00:48:45;;;;;;;;;;;;;;;7.20;46.83;101521.56;5382823;32;35998;-76
2023/03/01 00:51:46;;;;;;;;;;;;;;;6.40;48.11;101526.38;5359003;32;36521;-66
2023/03/01 00:54:48;;;;;;;;;;;;;;;7.38;45.99;101521.44;5379206;32;35794;-75
2023/03/01 00:57:50;;;;;;;;;;;;;;;7.35;46.08;101528.44;5368218;32;35258;-66
2023/03/01 01:00:52;;;;;;;;;;;;;;;7.00;46.73;101513.84;5395391;32;36341;-66
2023/03/01 01:03:56;;;;;;;;;;;;;;;7.19;46.00;101515.47;5382544;32;36466;-76
2023/03/01 01:06:58;;;;;;;;;;;;;;;7.27;46.39;101516.25;5377620;32;36098;-75
2023/03/01 01:09:59;;;;;;;;;;;;;;;6.54;47.76;101521.94;5383451;32;35935;-69
2023/03/01 01:13:02;;;;;;;;;;;;;;;6.45;47.80;101522.00;5385431;32;36473;-76
2023/03/01 01:16:04;;;;;;;;;;;;;;;6.75;47.57;101515.75;5392006;32;35742;-67
2023/03/01 01:19:06;;;;;;;;;;;;;;;6.86;47.18;101513.06;5382032;32;35558;-76
2023/03/01 01:22:07;;;;;;;;;;;;;;;6.95;47.18;101499.94;5394424;32;34679;-77
2023/03/01 01:25:10;;;;;;;;;;;;;;;6.61;48.03;101496.66;5383270;32;34686;-68
2023/03/01 01:28:12;;;;;;;;;;;;;;;6.03;49.18;101492.53;5390737;32;36236;-66
2023/03/01 01:31:14;;;;;;;;;;;;;;;6.05;49.30;101482.09;5368589;32;44763;-76
2023/03/01 01:34:17;;;;;;;;;;;;;;;6.49;48.21;101477.56;5383859;32;37919;-67
2023/03/01 01:37:19;;;;;;;;;;;;;;;5.91;49.67;101464.72;5394468;32;36348;-66
2023/03/01 01:40:21;;;;;;;;;;;;;;;6.64;48.53;101470.53;5381676;32;35534;-66
2023/03/01 01:43:49;;;;;;;;;;;;;;;7.24;45.86;101471.00;5368786;32;35734;-67
2023/03/01 01:46:54;;;;;;;;;;;;;;;7.26;46.35;101469.22;5377443;32;44830;-67
2023/03/01 01:49:56;;;;;;;;;;;;;;;6.25;48.64;101467.25;5386228;32;35385;-76
2023/03/01 01:52:58;;;;;;;;;;;;;;;6.37;48.13;101474.13;5374535;32;35567;-67
2023/03/01 01:56:00;;;;;;;;;;;;;;;6.67;47.57;101460.06;5381682;32;35525;-66
2023/03/01 01:59:02;;;;;;;;;;;;;;;6.77;47.69;101461.75;5395385;32;35286;-76
2023/03/01 02:02:04;;;;;;;;;;;;;;;6.13;49.21;101462.06;5380718;32;35552;-66
2023/03/01 02:05:10;;;;;;;;;;;;;;;6.37;48.41;101459.34;5402221;32;35004;-76
2023/03/01 02:08:12;;;;;;;;;;;;;;;6.18;49.13;101449.84;5379643;32;35966;-66
2023/03/01 02:11:15;;;;;;;;;;;;;;;6.78;47.62;101453.91;5370904;32;44843;-76
2023/03/01 02:14:16;;;;;;;;;;;;;;;6.94;47.37;101451.16;5378252;32;35282;-76
2023/03/01 02:17:19;;;;;;;;;;;;;;;6.86;47.66;101450.34;5382304;32;35540;-77
2023/03/01 02:20:31;;;;;;;;;;;;;;;6.94;47.11;101444.19;5395904;32;36372;-66
2023/03/01 02:23:33;;;;;;;;;;;;;;;6.43;48.17;101451.47;5376830;32;35248;-75
2023/03/01 02:26:35;;;;;;;;;;;;;;;6.77;47.91;101439.09;5390977;32;34761;-68
2023/03/01 02:29:36;;;;;;;;;;;;;;;6.98;47.48;101443.31;5383564;32;36050;-67
2023/03/01 02:32:41;;;;;;;;;;;;;;;6.38;48.33;101442.81;5379769;32;35144;-66
2023/03/01 02:35:43;;;;;;;;;;;;;;;6.29;48.77;101441.97;5393715;32;44751;-67
2023/03/01 02:38:46;;;;;;;;;;;;;;;6.73;48.17;101433.91;5381751;32;35348;-76
2023/03/01 02:41:49;;;;;;;;;;;;;;;6.11;50.06;101440.31;5379543;32;35480;-76
2023/03/01 02:44:51;;;;;;;;;;;;;;;6.34;49.32;101428.03;5356020;32;36107;-67
2023/03/01 02:47:54;;;;;;;;;;;;;;;6.81;48.80;101428.62;5377779;32;36046;-67
2023/03/01 02:51:14;;;;;;;;;;;;;;;8.10;45.88;101422.09;5368846;32;35025;-77
2023/03/01 02:54:19;;;;;;;;;;;;;;;7.04;47.83;101422.34;5380445;32;44742;-67
2023/03/01 02:57:21;;;;;;;;;;;;;;;6.77;49.23;101422.56;5395205;32;35613;-77
2023/03/01 03:00:24;;;;;;;;;;;;;;;7.51;47.60;101413.19;5392712;32;35580;-77
2023/03/01 03:03:27;;;;;;;;;;;;;;;6.84;49.33;101405.94;5393802;32;36016;-76
2023/03/01 03:06:29;;;;;;;;;;;;;;;6.31;50.54;101417.63;5381166;32;35319;-76
2023/03/01 03:09:31;;;;;;;;;;;;;;;6.17;51.17;101424.63;5385270;32;34783;-77
2023/03/01 03:12:33;;;;;;;;;;;;;;;7.52;47.66;101417.53;5389170;32;35916;-77
2023/03/01 03:15:35;;;;;;;;;;;;;;;7.20;48.20;101414.34;5381810;32;36036;-75
2023/03/01 03:18:37;;;;;;;;;;;;;;;7.36;47.61;101415.97;5401376;32;35955;-76
2023/03/01 03:21:39;;;;;;;;;;;;;;;7.96;46.45;101413.56;5383659;32;35311;-68
2023/03/01 03:24:41;;;;;;;;;;;;;;;7.13;47.99;101413.53;5395009;32;35111;-66
2023/03/01 03:27:44;;;;;;;;;;;;;;;6.97;48.96;101407.59;5380502;32;44630;-76
2023/03/01 03:30:46;;;;;;;;;;;;;;;7.01;48.99;101403.19;5378585;32;36022;-77
2023/03/01 03:33:48;;;;;;;;;;;;;;;6.67;50.03;101406.06;5390871;32;35561;-77
2023/03/01 03:36:56;;;;;;;;;;;;;;;7.00;49.49;101397.09;5383121;32;36524;-67
2023/03/01 03:39:58;;;;;;;;;;;;;;;6.71;49.98;101396.47;5395271;32;35448;-67
2023/03/01 03:43:01;;;;;;;;;;;;;;;7.19;49.14;101407.41;5356406;32;35881;-76
2023/03/01 03:46:06;;;;;;;;;;;;;;;6.68;50.06;101405.19;5388968;32;35565;-67
2023/03/01 03:49:08;;;;;;;;;;;;;;;6.40;50.98;101411.47;5386655;32;35522;-67
2023/03/01 03:52:13;;;;;;;;;;;;;;;5.94;52.00;101412.56;5381075;32;35518;-67
2023/03/01 03:55:19;;;;;;;;;;;;;;;5.68;52.89;101411.75;5394622;32;44899;-67
2023/03/01 03:58:21;;;;;;;;;;;;;;;6.35;50.38;101406.25;5380819;32;35886;-67
2023/03/01 04:01:23;;;;;;;;;;;;;;;6.40;50.63;101401.88;5395136;32;35906;-77
2023/03/01 04:04:25;;;;;;;;;;;;;;;6.80;49.51;101412.06;5381159;32;35761;-67
2023/03/01 04:07:27;;;;;;;;;;;;;;;7.54;47.70;101407.06;5390268;32;35284;-67
2023/03/01 04:10:30;;;;;;;;;;;;;;;6.93;48.94;101405.88;5382659;32;36147;-76
2023/03/01 04:13:32;;;;;;;;;;;;;;;7.20;48.51;101407.38;5380486;32;35226;-66
2023/03/01 04:16:33;;;;;;;;;;;;;;;6.83;49.25;101405.94;5401541;32;35919;-66
2023/03/01 04:19:35;;;;;;;;;;;;;;;6.82;48.84;101407.69;5381758;32;35042;-66
2023/03/01 04:22:38;;;;;;;;;;;;;;;7.23;48.25;101409.13;5392931;32;35163;-76
2023/03/01 04:25:41;;;;;;;;;;;;;;;7.51;47.37;101399.25;5379698;32;35825;-76
2023/03/01 04:28:44;;;;;;;;;;;;;;;7.60;46.46;101409.63;5401108;32;43110;-76
2023/03/01 04:31:48;;;;;;;;;;;;;;;8.14;45.66;101404.62;5385224;32;35475;-76
2023/03/01 04:34:51;;;;;;;;;;;;;;;7.17;47.59;101410.03;5381294;32;36203;-76
2023/03/01 04:37:52;;;;;;;;;;;;;;;7.05;48.13;101407.53;5396338;32;35622;-76
2023/03/01 04:40:54;;;;;;;;;;;;;;;7.22;47.84;101413.47;5381274;32;35986;-67
2023/03/01 04:43:56;;;;;;;;;;;;;;;7.49;47.10;101412.34;5372647;32;35509;-77
2023/03/01 04:46:58;;;;;;;;;;;;;;;6.93;48.49;101410.22;5389085;32;36019;-77
2023/03/01 04:50:00;;;;;;;;;;;;;;;6.96;48.59;101405.00;5392863;32;35510;-67
2023/03/01 04:53:02;;;;;;;;;;;;;;;6.91;48.66;101406.78;5386449;32;35535;-75
2023/03/01 04:56:04;;;;;;;;;;;;;;;6.86;49.00;101396.34;5380067;32;34565;-76
2023/03/01 04:59:08;;;;;;;;;;;;;;;7.18;48.55;101396.06;5396114;32;35951;-66
2023/03/01 05:02:10;;;;;;;;;;;;;;;7.23;48.26;101402.13;5379698;32;34835;-68
2023/03/01 05:05:12;;;;;;;;;;;;;;;6.75;49.24;101395.56;5395881;32;34800;-66
2023/03/01 05:08:17;;;;;;;;;;;;;;;7.20;48.49;101391.69;5380611;32;44803;-67
2023/03/01 05:11:19;;;;;;;;;;;;;;;6.86;48.88;101393.72;5389021;32;36972;-77
2023/03/01 05:14:22;;;;;;;;;;;;;;;6.71;49.98;101380.78;5389535;32;36021;-76
2023/03/01 05:17:24;;;;;;;;;;;;;;;7.20;48.90;101394.31;5381791;32;36378;-66
2023/03/01 05:20:28;;;;;;;;;;;;;;;6.75;49.89;101387.72;5382652;32;36029;-66
2023/03/01 05:23:32;;;;;;;;;;;;;;;6.68;49.89;101394.72;5382438;32;36043;-77
2023/03/01 05:26:34;;;;;;;;;;;;;;;6.31;51.00;101398.44;5395951;32;35422;-66
2023/03/01 05:29:35;;;;;;;;;;;;;;;6.95;49.32;101398.00;5383200;32;36244;-76
2023/03/01 05:32:37;;;;;;;;;;;;;;;7.30;48.71;101397.72;5385258;32;35782;-66
2023/03/01 05:35:41;;;;;;;;;;;;;;;7.26;48.17;101404.72;5378718;32;33842;-77
2023/03/01 05:38:43;;;;;;;;;;;;;;;6.65;50.17;101402.59;5382021;32;37186;-76
2023/03/01 05:41:45;;;;;;;;;;;;;;;6.35;51.47;101405.41;5382841;32;35576;-77
2023/03/01 05:44:47;;;;;;;;;;;;;;;6.46;50.93;101408.81;5367311;32;36004;-76
2023/03/01 05:47:50;;;;;;;;;;;;;;;7.31;48.57;101413.37;5393138;32;35298;-67
2023/03/01 05:50:51;;;;;;;;;;;;;;;6.87;49.92;101408.53;5380986;32;35672;-77
2023/03/01 05:53:53;;;;;;;;;;;;;;;7.43;49.07;101415.03;5386180;32;37191;-76
2023/03/01 05:56:56;;;;;;;;;;;;;;;7.44;48.52;101418.50;5392083;32;35475;-77
2023/03/01 05:59:58;;;;;;;;;;;;;;;7.41;48.36;101410.69;5380014;32;35309;-67
2023/03/01 06:03:00;;;;;;;;;;;;;;;7.60;47.99;101410.50;5395210;32;35086;-77
2023/03/01 06:06:02;;;;;;;;;;;;;;;6.84;50.09;101421.62;5364137;32;35845;-77
2023/03/01 06:09:04;;;;;;;;;;;;;;;7.13;49.23;101420.53;5378524;32;35589;-76
2023/03/01 06:12:06;;;;;;;;;;;;;;;7.05;49.58;101416.22;5366207;32;35800;-76
2023/03/01 06:15:09;;;;;;;;;;;;;;;7.35;48.83;101413.37;5383746;32;35914;-67
2023/03/01 06:18:11;;;;;;;;;;;;;;;7.22;49.04;101417.84;5382196;32;35549;-76
2023/03/01 06:21:13;;;;;;;;;;;;;;;6.66;50.95;101421.75;5381509;32;45364;-76
2023/03/01 06:24:15;;;;;;;;;;;;;;;7.22;49.59;101415.22;5396777;32;34831;-76
2023/03/01 06:27:17;;;;;;;;;;;;;;;6.77;50.63;101426.03;5365888;32;36020;-77
2023/03/01 06:30:19;;;;;;;;;;;;;;;6.57;51.53;101416.56;5395570;32;36004;-67
2023/03/01 06:33:23;;;;;;;;;;;;;;;7.33;49.52;101418.59;5381769;32;35983;-76
2023/03/01 06:36:25;;;;;;;;;;;;;;;7.31;49.73;101426.47;5383094;32;35250;-77
2023/03/01 06:39:27;;;;;;;;;;;;;;;6.91;50.71;101427.69;5377448;32;36300;-78
2023/03/01 06:42:29;;;;;;;;;;;;;;;7.07;49.93;101424.91;5344822;32;35354;-78
2023/03/01 06:45:33;;;;;;;;;;;;;;;7.20;50.13;101441.38;5381042;32;35484;-79
2023/03/01 06:48:35;;;;;;;;;;;;;;;7.31;49.63;101438.66;5363863;32;35836;-70
2023/03/01 06:51:37;;;;;;;;;;;;;;;7.03;49.81;101438.03;5394918;32;35099;-74
2023/03/01 06:54:39;;;;;;;;;;;;;;;7.07;50.04;101443.22;5382088;32;35227;-74
2023/03/01 06:57:41;;;;;;;;;;;;;;;7.64;48.04;101440.09;5377688;32;33146;-68
2023/03/01 07:00:44;;;;;;;;;;;;;;;6.98;50.06;101445.91;5392578;32;44926;-68
2023/03/01 07:03:46;;;;;;;;;;;;;;;7.61;48.56;101442.75;5385979;32;35292;-74
2023/03/01 07:06:54;;;;;;;;;;;;;;;7.73;48.26;101436.50;5397944;32;34580;-76
2023/03/01 07:09:56;;;;;;;;;;;;;;;8.07;46.60;101442.25;5365752;32;36125;-76
2023/03/01 07:12:59;;;;;;;;;;;;;;;8.60;46.27;101427.59;5387711;32;34877;-76
2023/03/01 07:16:01;;;;;;;;;;;;;;;8.34;46.23;101435.78;5385473;32;37146;-64
2023/03/01 07:19:03;;;;;;;;;;;;;;;8.09;47.20;101433.47;5377029;32;35826;-64
2023/03/01 07:22:07;;;;;;;;;;;;;;;7.70;47.86;101432.19;5378979;32;34615;-75
2023/03/01 07:25:10;;;;;;;;;;;;;;;7.13;49.62;101430.97;5385369;32;35300;-64
2023/03/01 07:28:12;;;;;;;;;;;;;;;7.69;48.29;101430.44;5392354;32;34548;-78
2023/03/01 07:31:14;;;;;;;;;;;;;;;7.59;48.46;101424.44;5383474;32;44566;-77
2023/03/01 07:34:16;;;;;;;;;;;;;;;7.97;47.37;101424.91;5394237;32;34891;-87
2023/03/01 07:37:18;;;;;;;;;;;;;;;8.17;46.81;101428.12;5388743;32;36122;-66
2023/03/01 07:40:20;;;;;;;;;;;;;;;7.10;49.37;101433.63;5381409;32;35352;-82
2023/03/01 07:43:22;;;;;;;;;;;;;;;7.87;47.45;101435.50;5355724;32;36005;-85
2023/03/01 07:46:24;;;;;;;;;;;;;;;8.56;45.32;101425.91;5386300;32;34931;-82
2023/03/01 07:49:26;;;;;;;;;;;;;;;7.71;47.83;101427.81;5395767;32;34938;-68
2023/03/01 07:52:29;;;;;;;;;;;;;;;9.05;44.64;101420.78;5378995;32;36401;-67
2023/03/01 07:55:31;;;;;;;;;;;;;;;9.17;44.04;101410.09;5374918;32;34798;-82
2023/03/01 07:58:36;;;;;;;;;;;;;;;8.87;44.74;101406.22;5390974;32;36539;-83
2023/03/01 08:01:38;;;;;;;;;;;;;;;7.93;46.57;101418.84;5382815;32;34662;-66
2023/03/01 08:04:41;;;;;;;;;;;;;;;8.57;45.10;101410.19;5394710;32;35895;-66
2023/03/01 08:07:44;;;;;;;;;;;;;;;8.16;45.77;101408.06;5376857;32;44725;-67
2023/03/01 08:10:46;;;;;;;;;;;;;;;9.22;43.86;101399.53;5400615;32;35134;-67
2023/03/01 08:13:48;;;;;;;;;;;;;;;8.22;44.82;101408.00;5372346;32;36033;-66
2023/03/01 08:16:54;;;;;;;;;;;;;;;9.26;43.22;101409.06;5387598;32;35925;-86
2023/03/01 08:19:56;;;;;;;;;;;;;;;9.92;41.60;101399.97;5387834;32;36239;-88
2023/03/01 08:22:59;;;;;;;;;;;;;;;9.46;42.58;101395.56;5377270;32;33950;-88
2023/03/01 08:26:08;;;;;;;;;;;;;;;9.00;43.59;101401.62;5402210;32;36071;-87
2023/03/01 08:29:10;;;;;;;;;;;;;;;10.12;40.92;101394.31;5386427;32;36039;-66
2023/03/01 08:32:12;;;;;;;;;;;;;;;9.65;41.83;101394.34;5391823;32;36051;-66
2023/03/01 08:35:14;;;;;;;;;;;;;;;9.55;42.06;101384.06;5388627;32;44331;-68
2023/03/01 08:38:16;;;;;;;;;;;;;;;9.96;41.76;101381.47;5382395;32;38076;-87
2023/03/01 08:41:19;;;;;;;;;;;;;;;8.64;43.49;101395.22;5397979;32;34830;-89
2023/03/01 08:44:21;;;;;;;;;;;;;;;8.98;43.49;101387.69;5351838;32;36488;-66
2023/03/01 08:47:23;;;;;;;;;;;;;;;10.19;40.06;101381.00;5396087;32;34864;-88
2023/03/01 08:50:25;;;;;;;;;;;;;;;9.96;40.43;101375.34;5381402;32;36149;-67
2023/03/01 08:53:27;;;;;;;;;;;;;;;10.31;39.60;101377.28;5395669;32;34734;-88
2023/03/01 08:56:29;;;;;;;;;;;;;;;11.27;38.48;101364.41;5391273;32;36555;-87
2023/03/01 08:59:36;;;;;;;;;;;;;;;10.25;40.34;101366.91;5390042;32;38238;-88
2023/03/01 09:02:38;;;;;;;;;;;;;;;9.93;41.04;101371.03;5378462;32;34491;-65
2023/03/01 09:05:40;;;;;;;;;;;;;;;10.78;39.40;101363.00;5387894;32;35402;-89
2023/03/01 09:08:44;;;;;;;;;;;;;;;9.67;41.70;101368.09;5395983;32;42885;-93
2023/03/01 09:11:46;;;;;;;;;;;;;;;10.48;40.06;101369.00;5385953;32;45269;-67
2023/03/01 09:14:48;;;;;;;;;;;;;;;10.48;40.49;101358.47;5400639;32;34728;-90
2023/03/01 09:17:51;;;;;;;;;;;;;;;9.73;41.66;101360.94;5394974;32;36456;-89
2023/03/01 09:20:56;;;;;;;;;;;;;;;11.91;38.03;101344.22;5378535;32;34891;-91
2023/03/01 09:23:58;;;;;;;;;;;;;;;11.98;37.87;101346.63;5404155;32;35412;-91
2023/03/01 09:27:01;;;;;;;;;;;;;;;11.36;38.74;101340.47;5386557;32;34713;-90
2023/03/01 09:30:04;;;;;;;;;;;;;;;11.10;39.43;101337.66;5398943;32;34751;-89
2023/03/01 09:33:06;;;;;;;;;;;;;;;11.85;38.20;101328.59;5361980;32;35687;-66
2023/03/01 09:36:11;;;;;;;;;;;;;;;12.43;36.28;101318.03;5397691;32;34617;-90
2023/03/01 09:39:13;;;;;;;;;;;;;;;12.29;36.57;101313.16;5377375;32;44287;-93
2023/03/01 09:42:16;;;;;;;;;;;;;;;11.69;38.16;101315.88;5368269;32;35849;-68
2023/03/01 09:45:25;;;;;;;;;;;;;;;10.67;40.06;101315.06;5390347;32;36737;-88
2023/03/01 09:48:27;;;;;;;;;;;;;;;12.04;37.68;101301.66;5385070;32;36091;-66
2023/03/01 09:51:33;;;;;;;;;;;;;;;11.46;38.38;101303.34;5398098;32;35107;-86
2023/03/01 09:54:35;;;;;;;;;;;;;;;12.83;36.46;101299.13;5376332;32;35151;-89
2023/03/01 09:57:48;;;;;;;;;;;;;;;12.61;36.33;101293.69;5385307;32;35996;-83
2023/03/01 10:00:50;;;;;;;;;;;;;;;12.91;36.03;101289.16;5399566;32;44265;-72
2023/03/01 10:04:05;;;;;;;;;;;;;;;12.97;35.90;101296.00;5380976;32;36430;-68
2023/03/01 10:07:09;;;;;;;;;;;;;;;12.89;36.12;101291.00;5395040;32;35645;-65
2023/03/01 10:10:16;;;;;;;;;;;;;;;12.40;37.96;101292.62;5386189;32;36753;-65
2023/03/01 10:13:24;;;;;;;;;;;;;;;12.89;36.40;101288.34;5395092;32;44425;-66
2023/03/01 10:16:27;;;;;;;;;;;;;;;12.34;37.04;101286.69;5394140;32;36222;-67
2023/03/01 10:19:34;;;;;;;;;;;;;;;13.37;35.66;101277.00;5388396;32;34746;-67
2023/03/01 10:22:36;;;;;;;;;;;;;;;12.74;36.28;101271.25;5394576;32;34635;-66
2023/03/01 10:25:38;;;;;;;;;;;;;;;13.78;34.98;101258.72;5372211;32;34931;-67
2023/03/01 10:28:46;;;;;;;;;;;;;;;16.32;31.20;101245.84;5397472;32;45293;-65
2023/03/01 10:31:49;;;;;;;;;;;;;;;17.98;28.25;101230.03;5383596;32;34707;-67
2023/03/01 10:34:52;;;;;;;;;;;;;;;20.15;24.97;101232.75;5391836;32;34674;-79
2023/03/01 10:38:03;;;;;;;;;;;;;;;17.68;28.08;101228.09;5378517;32;36761;-73
2023/03/01 10:41:06;;;;;;;;;;;;;;;17.42;27.80;101226.03;5411628;27;36956;-93
2023/03/01 10:44:09;;;;;;;;;;;;;;;18.35;27.86;101226.09;5363235;32;34804;-93
2023/03/01 10:47:20;;;;;;;;;;;;;;;19.95;24.96;101216.25;5405701;32;35121;-92
2023/03/01 10:50:22;;;;;;;;;;;;;;;20.37;24.61;101203.69;5388722;32;43622;-92
2023/03/01 10:53:41;;;;;;;;;;;;;;;21.21;23.37;101194.38;5404771;27;36343;-93
2023/03/01 10:56:56;;;;;;;;;;;;;;;19.08;26.01;101196.94;5422626;32;34542;-93
2023/03/01 11:00:15;;;;;;;;;;;;;;;19.80;25.43;101190.56;5391916;32;35374;-96
2023/03/01 11:03:21;;;;;;;;;;;;;;;20.44;24.03;101186.31;5412757;32;43071;-95
2023/03/01 11:06:26;;;;;;;;;;;;;;;18.36;27.15;101190.59;5437395;32;35122;-95
2023/03/01 11:09:37;;;;;;;;;;;;;;;17.76;27.91;101187.84;5401408;32;34899;-92
2023/03/01 11:12:39;;;;;;;;;;;;;;;18.92;26.31;101189.84;5425382;32;34116;-93
2023/03/01 11:15:42;;;;;;;;;;;;;;;17.07;28.95;101191.59;5415631;32;33816;-95
2023/03/01 11:18:48;;;;;;;;;;;;;;;17.96;28.13;101181.38;5413853;32;44207;-95
2023/03/01 11:22:04;;;;;;;;;;;;;;;17.23;28.76;101173.88;5439715;32;34922;-96
2023/03/01 11:25:21;;;;;;;;;;;;;;;17.39;28.09;101179.22;5431424;32;34474;-95
2023/03/01 11:28:29;;;;;;;;;;;;;;;18.63;26.92;101172.13;5429768;32;35620;-95
2023/03/01 11:31:34;;;;;;;;;;;;;;;17.74;27.81;101171.97;5428264;32;33961;-95
2023/03/01 11:35:02;;;;;;;;;;;;;;;16.64;29.29;101169.91;5415542;32;36007;-94
2023/03/01 11:38:11;;;;;;;;;;;;;;;18.36;27.02;101166.63;5424448;32;34555;-96
2023/03/01 11:41:35;;;;;;;;;;;;;;;16.69;28.97;101165.25;5436351;32;35821;-96
2023/03/01 11:44:38;;;;;;;;;;;;;;;18.17;27.36;101163.34;5442074;32;35343;-96
2023/03/01 11:47:41;;;;;;;;;;;;;;;18.18;27.37;101152.59;5441932;32;34307;-96
2023/03/01 11:50:48;;;;;;;;;;;;;;;19.21;26.23;101147.25;5408160;32;43412;-96
2023/03/01 11:54:01;;;;;;;;;;;;;;;19.28;25.75;101142.37;5446036;32;34432;-96
2023/03/01 11:57:25;;;;;;;;;;;;;;;22.00;22.48;101139.59;5434950;27;35623;-75
2023/03/01 12:00:57;;;;;;;;;;;;;;;19.51;25.15;101140.88;5389695;32;35742;-74
2023/03/01 12:03:59;;;;;;;;;;;;;;;19.76;24.84;101130.38;5396461;32;36355;-75
2023/03/01 12:07:04;;;;;;;;;;;;;;;18.23;27.15;101142.56;5378969;32;34825;-75
2023/03/01 12:10:24;;;;;;;;;;;;;;;16.16;30.27;101136.13;5370504;32;35897;-75
2023/03/01 12:13:27;;;;;;;;;;;;;;;16.54;30.02;101136.81;5395515;32;36403;-74
2023/03/01 12:16:31;;;;;;;;;;;;;;;15.24;31.76;101129.13;5387390;32;34797;-73
2023/03/01 12:19:44;;;;;;;;;;;;;;;14.29;33.71;101138.59;5396026;32;33586;-70
2023/03/01 12:22:45;;;;;;;;;;;;;;;15.71;31.26;101126.88;5373052;32;44857;-75
2023/03/01 12:25:47;;;;;;;;;;;;;;;15.31;32.54;101109.34;5396397;32;33071;-73
2023/03/01 12:28:55;;;;;;;;;;;;;;;15.68;31.81;101108.47;5384596;32;36667;-75
2023/03/01 12:31:57;;;;;;;;;;;;;;;14.87;33.14;101106.97;5382655;32;34316;-71
2023/03/01 12:34:59;;;;;;;;;;;;;;;14.46;33.97;101106.16;5395236;32;34745;-74
2023/03/01 12:38:20;;;;;;;;;;;;;;;16.57;30.50;101099.53;5381770;32;35111;-74
2023/03/01 12:41:27;;;;;;;;;;;;;;;17.29;29.44;101104.47;5394973;32;46974;-75
2023/03/01 12:44:31;;;;;;;;;;;;;;;17.54;28.69;101089.81;5364629;32;34763;-75
2023/03/01 12:47:36;;;;;;;;;;;;;;;16.44;30.18;101087.84;5383341;32;34675;-76
2023/03/01 12:50:40;;;;;;;;;;;;;;;17.22;29.64;101084.50;5401437;32;34604;-76
2023/03/01 12:53:46;;;;;;;;;;;;;;;16.73;30.13;101087.19;5388056;32;36242;-75
2023/03/01 12:56:52;;;;;;;;;;;;;;;18.52;27.74;101076.06;5395037;32;46035;-74
2023/03/01 13:00:07;;;;;;;;;;;;;;;20.58;24.79;101075.91;5368972;32;36193;-77
2023/03/01 13:03:15;;;;;;;;;;;;;;;21.52;23.63;101078.09;5389094;32;34969;-74
2023/03/01 13:06:20;;;;;;;;;;;;;;;20.00;24.52;101070.06;5400609;32;45143;-70
2023/03/01 13:09:27;;;;;;;;;;;;;;;18.76;27.36;101066.59;5385620;32;34993;-72
2023/03/01 13:12:42;;;;;;;;;;;;;;;19.56;25.95;101065.00;5400804;32;34851;-73
2023/03/01 13:15:44;;;;;;;;;;;;;;;18.88;26.77;101073.81;5387499;32;47930;-75
2023/03/01 13:18:46;;;;;;;;;;;;;;;16.76;29.85;101078.22;5405301;32;36663;-71
2023/03/01 13:21:49;;;;;;;;;;;;;;;16.24;30.70;101070.31;5397269;32;33261;-77
2023/03/01 13:24:51;;;;;;;;;;;;;;;16.98;29.97;101076.09;5390179;32;36150;-76
2023/03/01 13:27:53;;;;;;;;;;;;;;;16.22;31.05;101078.34;5388592;32;35479;-75
2023/03/01 13:30:55;;;;;;;;;;;;;;;19.03;26.74;101053.34;5378261;32;35148;-73
2023/03/01 13:34:00;;;;;;;;;;;;;;;22.35;22.47;101028.03;5399599;32;34731;-73
2023/03/01 13:37:13;;;;;;;;;;;;;;;24.68;19.82;101020.28;5368792;32;34934;-72
2023/03/01 13:40:16;;;;;;;;;;;;;;;23.27;21.24;101030.53;5373180;32;47802;-73
2023/03/01 13:43:32;;;;;;;;;;;;;;;23.60;20.74;101032.25;5375621;32;36724;-73
2023/03/01 13:46:34;;;;;;;;;;;;;;;24.21;20.31;101025.22;5381054;32;34979;-74
2023/03/01 13:49:44;;;;;;;;;;;;;;;26.29;18.06;101013.59;5397330;32;34474;-75
2023/03/01 13:53:14;;;;;;;;;;;;;;;23.29;21.22;101017.84;5375581;32;44702;-76
2023/03/01 13:56:16;;;;;;;;;;;;;;;24.78;19.59;101002.31;5379485;32;45432;-78
2023/03/01 13:59:19;;;;;;;;;;;;;;;25.86;18.68;100996.13;5392144;32;34834;-70
2023/03/01 14:02:21;;;;;;;;;;;;;;;23.81;20.35;101002.78;5370751;32;36339;-70
2023/03/01 14:05:23;;;;;;;;;;;;;;;26.88;17.63;100988.97;5400574;32;36064;-74
2023/03/01 14:08:26;;;;;;;;;;;;;;;26.86;17.63;100985.56;5385975;32;36237;-77
2023/03/01 14:11:46;;;;;;;;;;;;;;;27.25;16.83;100985.34;5376022;32;845104;-78
2023/03/01 14:14:56;;;;;;;;;;;;;;;24.32;19.86;100994.75;5391866;32;44609;-73
2023/03/01 14:18:09;;;;;;;;;;;;;;;19.54;25.26;100994.94;5387844;32;34678;-79
2023/03/01 14:21:12;;;;;;;;;;;;;;;16.90;29.81;100996.00;5387272;32;35961;-77
2023/03/01 14:24:18;;;;;;;;;;;;;;;16.07;31.27;100996.94;5385077;32;45194;-73
2023/03/01 14:27:20;;;;;;;;;;;;;;;18.43;27.62;100967.53;5398330;32;36168;-75
2023/03/01 14:30:26;;;;;;;;;;;;;;;16.99;29.90;100987.50;5391079;32;34678;-76
2023/03/01 14:33:33;;;;;;;;;;;;;;;16.81;29.71;100987.69;5377367;32;36133;-74
2023/03/01 14:36:35;;;;;;;;;;;;;;;15.20;32.66;100987.19;5397098;32;34958;-76
2023/03/01 14:39:37;;;;;;;;;;;;;;;14.51;34.35;100978.09;5389620;32;35945;-77
2023/03/01 14:42:42;;;;;;;;;;;;;;;15.61;32.57;100975.41;5378955;32;35257;-73
2023/03/01 14:45:47;;;;;;;;;;;;;;;15.12;33.24;100971.69;5367191;32;43767;-72
2023/03/01 14:48:53;;;;;;;;;;;;;;;14.41;34.74;100975.91;5398269;32;34815;-70
2023/03/01 14:52:07;;;;;;;;;;;;;;;15.06;33.71;100962.25;5385960;32;37021;-73
2023/03/01 14:55:16;;;;;;;;;;;;;;;13.69;36.29;100968.50;5368171;32;34600;-69
2023/03/01 14:58:19;;;;;;;;;;;;;;;13.04;37.77;100972.06;5388351;32;44641;-67
2023/03/01 15:01:21;;;;;;;;;;;;;;;12.83;38.39;100974.62;5373534;32;36593;-81
2023/03/01 15:04:24;;;;;;;;;;;;;;;13.14;37.74;100969.00;5397144;32;34841;-83
2023/03/01 15:07:33;;;;;;;;;;;;;;;13.18;37.92;100972.37;5374046;32;34601;-67
2023/03/01 15:10:35;;;;;;;;;;;;;;;13.67;36.94;100962.44;5386819;32;34850;-70
2023/03/01 15:13:37;;;;;;;;;;;;;;;13.31;37.66;100963.06;5381560;32;34733;-71
2023/03/01 15:16:41;;;;;;;;;;;;;;;13.21;37.95;100969.66;5385565;32;35917;-69
2023/03/01 15:19:43;;;;;;;;;;;;;;;13.01;38.53;100963.38;5395285;32;43480;-69
2023/03/01 15:22:48;;;;;;;;;;;;;;;13.42;37.96;100966.13;5366848;32;35719;-72
2023/03/01 15:25:56;;;;;;;;;;;;;;;13.84;37.11;100957.28;5380690;32;36341;-69
2023/03/01 15:28:58;;;;;;;;;;;;;;;14.64;35.49;100957.22;5380480;32;36721;-75
2023/03/01 15:32:05;;;;;;;;;;;;;;;13.28;37.89;100963.19;5377743;32;34985;-69
2023/03/01 15:35:26;;;;;;;;;;;;;;;14.76;35.21;100948.72;5386334;32;34723;-73
2023/03/01 15:38:31;;;;;;;;;;;;;;;13.35;37.78;100958.53;5375301;32;36018;-71
2023/03/01 15:41:55;;;;;;;;;;;;;;;13.79;37.28;100954.00;5378106;32;35252;-75
2023/03/01 15:45:15;;;;;;;;;;;;;;;14.15;36.35;100953.28;5353797;32;36013;-70
2023/03/01 15:48:17;;;;;;;;;;;;;;;14.67;35.24;100958.84;5380657;32;46209;-72
2023/03/01 15:51:30;;;;;;;;;;;;;;;14.19;36.16;100960.16;5371719;32;35597;-73
2023/03/01 15:54:32;;;;;;;;;;;;;;;13.84;36.83;100957.28;5364828;32;35389;-71